sensor_id;sensor_type;location;lat;lon;timestamp;temperature;humidity
4584;DHT22;2304;47.606;12.186;2023-06-26T00:02:23;21.50;54.60
4584;DHT22;2304;47.606;12.186;2023-06-26T00:07:26;21.40;54.40
4584;DHT22;2304;47.606;12.186;2023-06-26T00:12:28;21.30;55.30
4584;DHT22;2304;47.606;12.186;2023-06-26T00:17:29;21.30;55.30
4584;DHT22;2304;47.606;12.186;2023-06-26T00:22:38;21.20;55.30
4584;DHT22;2304;47.606;12.186;2023-06-26T00:27:41;21.20;56.30
4584;DHT22;2304;47.606;12.186;2023-06-26T00:32:43;21.20;55.40
4584;DHT22;2304;47.606;12.186;2023-06-26T00:37:46;21.10;55.60
4584;DHT22;2304;47.606;12.186;2023-06-26T00:42:49;21.00;55.80
4584;DHT22;2304;47.606;12.186;2023-06-26T00:47:51;21.00;55.70
4584;DHT22;2304;47.606;12.186;2023-06-26T00:52:54;20.90;56.10
4584;DHT22;2304;47.606;12.186;2023-06-26T00:58:00;20.90;56.40
4584;DHT22;2304;47.606;12.186;2023-06-26T01:03:02;20.80;56.00
4584;DHT22;2304;47.606;12.186;2023-06-26T01:08:05;20.80;56.40
4584;DHT22;2304;47.606;12.186;2023-06-26T01:13:08;20.80;56.10
4584;DHT22;2304;47.606;12.186;2023-06-26T01:18:10;20.80;56.20
4584;DHT22;2304;47.606;12.186;2023-06-26T01:23:17;20.70;56.30
4584;DHT22;2304;47.606;12.186;2023-06-26T01:28:23;20.60;55.60
4584;DHT22;2304;47.606;12.186;2023-06-26T01:33:25;20.50;55.80
4584;DHT22;2304;47.606;12.186;2023-06-26T01:38:28;20.50;56.20
4584;DHT22;2304;47.606;12.186;2023-06-26T01:43:37;20.40;56.80
4584;DHT22;2304;47.606;12.186;2023-06-26T01:48:47;20.40;55.40
4584;DHT22;2304;47.606;12.186;2023-06-26T01:53:53;20.30;56.70
4584;DHT22;2304;47.606;12.186;2023-06-26T01:59:29;20.30;57.20
4584;DHT22;2304;47.606;12.186;2023-06-26T02:04:32;20.30;56.90
4584;DHT22;2304;47.606;12.186;2023-06-26T02:09:34;20.20;56.70
4584;DHT22;2304;47.606;12.186;2023-06-26T02:14:37;20.20;56.80
4584;DHT22;2304;47.606;12.186;2023-06-26T02:19:39;20.10;57.60
4584;DHT22;2304;47.606;12.186;2023-06-26T02:24:48;20.30;57.60
4584;DHT22;2304;47.606;12.186;2023-06-26T02:29:51;20.20;58.00
4584;DHT22;2304;47.606;12.186;2023-06-26T02:34:53;20.10;57.80
4584;DHT22;2304;47.606;12.186;2023-06-26T02:39:55;20.10;57.80
4584;DHT22;2304;47.606;12.186;2023-06-26T02:44:58;20.10;58.10
4584;DHT22;2304;47.606;12.186;2023-06-26T02:50:00;20.10;58.00
4584;DHT22;2304;47.606;12.186;2023-06-26T02:55:01;20.00;58.20
4584;DHT22;2304;47.606;12.186;2023-06-26T03:00:06;20.00;58.00
4584;DHT22;2304;47.606;12.186;2023-06-26T03:05:08;20.00;57.90
4584;DHT22;2304;47.606;12.186;2023-06-26T03:10:10;19.90;56.50
4584;DHT22;2304;47.606;12.186;2023-06-26T03:15:13;19.80;58.20
4584;DHT22;2304;47.606;12.186;2023-06-26T03:20:15;19.70;58.50
4584;DHT22;2304;47.606;12.186;2023-06-26T03:25:18;19.80;58.50
4584;DHT22;2304;47.606;12.186;2023-06-26T03:30:22;19.80;59.00
4584;DHT22;2304;47.606;12.186;2023-06-26T03:35:24;19.80;59.00
4584;DHT22;2304;47.606;12.186;2023-06-26T03:40:25;19.80;58.90
4584;DHT22;2304;47.606;12.186;2023-06-26T03:45:28;19.90;58.60
4584;DHT22;2304;47.606;12.186;2023-06-26T03:50:30;19.90;59.00
4584;DHT22;2304;47.606;12.186;2023-06-26T03:55:32;19.90;58.40
4584;DHT22;2304;47.606;12.186;2023-06-26T04:00:36;19.90;58.80
4584;DHT22;2304;47.606;12.186;2023-06-26T04:05:38;19.90;58.80
4584;DHT22;2304;47.606;12.186;2023-06-26T04:10:39;19.90;58.70
4584;DHT22;2304;47.606;12.186;2023-06-26T04:15:43;20.20;58.60
4584;DHT22;2304;47.606;12.186;2023-06-26T04:21:05;20.00;58.20
4584;DHT22;2304;47.606;12.186;2023-06-26T04:26:08;20.00;58.90
4584;DHT22;2304;47.606;12.186;2023-06-26T04:31:11;20.10;58.10
4584;DHT22;2304;47.606;12.186;2023-06-26T04:36:13;20.10;57.90
4584;DHT22;2304;47.606;12.186;2023-06-26T04:41:14;20.10;57.50
4584;DHT22;2304;47.606;12.186;2023-06-26T04:46:18;20.10;57.20
4584;DHT22;2304;47.606;12.186;2023-06-26T04:51:19;20.00;58.20
4584;DHT22;2304;47.606;12.186;2023-06-26T04:56:22;20.00;57.70
4584;DHT22;2304;47.606;12.186;2023-06-26T05:01:25;20.00;56.50
4584;DHT22;2304;47.606;12.186;2023-06-26T05:06:30;19.60;56.10
4584;DHT22;2304;47.606;12.186;2023-06-26T05:11:31;19.50;57.60
4584;DHT22;2304;47.606;12.186;2023-06-26T05:16:35;19.70;57.50
4584;DHT22;2304;47.606;12.186;2023-06-26T05:21:37;19.70;57.40
4584;DHT22;2304;47.606;12.186;2023-06-26T05:26:39;19.60;56.60
4584;DHT22;2304;47.606;12.186;2023-06-26T05:31:45;19.40;56.90
4584;DHT22;2304;47.606;12.186;2023-06-26T05:36:48;19.60;59.00
4584;DHT22;2304;47.606;12.186;2023-06-26T05:41:52;20.20;58.30
4584;DHT22;2304;47.606;12.186;2023-06-26T05:46:56;20.10;56.30
4584;DHT22;2304;47.606;12.186;2023-06-26T05:51:58;20.30;56.50
4584;DHT22;2304;47.606;12.186;2023-06-26T05:57:00;20.50;56.00
4584;DHT22;2304;47.606;12.186;2023-06-26T06:02:04;20.80;55.20
4584;DHT22;2304;47.606;12.186;2023-06-26T06:07:05;20.80;54.30
4584;DHT22;2304;47.606;12.186;2023-06-26T06:12:08;21.10;54.70
4584;DHT22;2304;47.606;12.186;2023-06-26T06:17:11;21.50;54.60
4584;DHT22;2304;47.606;12.186;2023-06-26T06:22:13;21.60;54.00
4584;DHT22;2304;47.606;12.186;2023-06-26T06:27:15;21.70;54.30
4584;DHT22;2304;47.606;12.186;2023-06-26T06:32:18;21.90;52.60
4584;DHT22;2304;47.606;12.186;2023-06-26T06:37:20;22.10;52.50
4584;DHT22;2304;47.606;12.186;2023-06-26T06:42:21;22.40;52.10
4584;DHT22;2304;47.606;12.186;2023-06-26T06:47:25;22.50;50.20
4584;DHT22;2304;47.606;12.186;2023-06-26T06:52:26;22.50;51.40
4584;DHT22;2304;47.606;12.186;2023-06-26T06:57:28;22.60;49.40
4584;DHT22;2304;47.606;12.186;2023-06-26T07:02:32;23.00;51.30
4584;DHT22;2304;47.606;12.186;2023-06-26T07:07:35;23.10;50.60
4584;DHT22;2304;47.606;12.186;2023-06-26T07:12:37;23.30;49.60
4584;DHT22;2304;47.606;12.186;2023-06-26T07:17:41;23.30;50.70
4584;DHT22;2304;47.606;12.186;2023-06-26T07:22:43;23.50;50.00
4584;DHT22;2304;47.606;12.186;2023-06-26T07:27:46;23.80;49.90
4584;DHT22;2304;47.606;12.186;2023-06-26T07:32:49;24.20;49.60
4584;DHT22;2304;47.606;12.186;2023-06-26T07:37:51;24.40;49.10
4584;DHT22;2304;47.606;12.186;2023-06-26T07:42:53;24.40;49.50
4584;DHT22;2304;47.606;12.186;2023-06-26T07:47:56;24.30;49.50
4584;DHT22;2304;47.606;12.186;2023-06-26T07:52:58;24.10;49.60
4584;DHT22;2304;47.606;12.186;2023-06-26T07:58:00;24.10;50.20
4584;DHT22;2304;47.606;12.186;2023-06-26T08:03:04;24.20;50.40
4584;DHT22;2304;47.606;12.186;2023-06-26T08:08:06;24.50;49.10
4584;DHT22;2304;47.606;12.186;2023-06-26T08:13:07;24.90;50.30
4584;DHT22;2304;47.606;12.186;2023-06-26T08:18:11;24.90;48.80
4584;DHT22;2304;47.606;12.186;2023-06-26T08:23:13;25.20;49.60
4584;DHT22;2304;47.606;12.186;2023-06-26T08:28:15;25.30;49.60
4584;DHT22;2304;47.606;12.186;2023-06-26T08:33:18;25.50;49.60
4584;DHT22;2304;47.606;12.186;2023-06-26T08:38:20;25.60;49.70
4584;DHT22;2304;47.606;12.186;2023-06-26T08:43:21;25.80;50.40
4584;DHT22;2304;47.606;12.186;2023-06-26T08:48:25;25.90;47.70
4584;DHT22;2304;47.606;12.186;2023-06-26T08:53:32;26.00;48.10
4584;DHT22;2304;47.606;12.186;2023-06-26T08:58:35;26.30;47.20
4584;DHT22;2304;47.606;12.186;2023-06-26T09:03:39;26.90;46.30
4584;DHT22;2304;47.606;12.186;2023-06-26T09:08:42;27.20;45.00
4584;DHT22;2304;47.606;12.186;2023-06-26T09:13:44;26.90;45.10
4584;DHT22;2304;47.606;12.186;2023-06-26T09:18:51;27.30;45.60
4584;DHT22;2304;47.606;12.186;2023-06-26T09:23:53;27.80;44.70
4584;DHT22;2304;47.606;12.186;2023-06-26T09:28:57;28.30;44.90
4584;DHT22;2304;47.606;12.186;2023-06-26T09:34:00;28.30;44.00
4584;DHT22;2304;47.606;12.186;2023-06-26T09:39:03;28.40;44.80
4584;DHT22;2304;47.606;12.186;2023-06-26T09:44:11;29.00;44.30
4584;DHT22;2304;47.606;12.186;2023-06-26T09:49:14;28.60;42.10
4584;DHT22;2304;47.606;12.186;2023-06-26T09:54:16;28.30;44.10
4584;DHT22;2304;47.606;12.186;2023-06-26T09:59:19;28.70;45.70
4584;DHT22;2304;47.606;12.186;2023-06-26T10:04:23;29.00;42.10
4584;DHT22;2304;47.606;12.186;2023-06-26T10:09:25;29.30;41.90
4584;DHT22;2304;47.606;12.186;2023-06-26T10:14:27;29.60;42.00
4584;DHT22;2304;47.606;12.186;2023-06-26T10:19:33;30.20;42.20
4584;DHT22;2304;47.606;12.186;2023-06-26T10:24:37;30.50;41.10
4584;DHT22;2304;47.606;12.186;2023-06-26T10:29:40;30.40;40.80
4584;DHT22;2304;47.606;12.186;2023-06-26T10:34:44;30.60;41.50
4584;DHT22;2304;47.606;12.186;2023-06-26T10:39:47;31.10;41.90
4584;DHT22;2304;47.606;12.186;2023-06-26T10:44:52;31.00;40.90
4584;DHT22;2304;47.606;12.186;2023-06-26T10:49:55;30.90;38.20
4584;DHT22;2304;47.606;12.186;2023-06-26T10:54:57;31.10;38.10
4584;DHT22;2304;47.606;12.186;2023-06-26T11:00:08;31.30;36.90
4584;DHT22;2304;47.606;12.186;2023-06-26T11:05:23;31.20;38.80
4584;DHT22;2304;47.606;12.186;2023-06-26T11:10:26;31.70;37.00
4584;DHT22;2304;47.606;12.186;2023-06-26T11:15:28;31.90;34.90
4584;DHT22;2304;47.606;12.186;2023-06-26T11:20:32;31.70;36.70
4584;DHT22;2304;47.606;12.186;2023-06-26T11:25:34;32.10;36.90
4584;DHT22;2304;47.606;12.186;2023-06-26T11:30:36;32.00;37.10
4584;DHT22;2304;47.606;12.186;2023-06-26T11:35:41;32.30;36.30
4584;DHT22;2304;47.606;12.186;2023-06-26T11:40:43;32.50;35.20
4584;DHT22;2304;47.606;12.186;2023-06-26T11:45:45;32.50;35.50
4584;DHT22;2304;47.606;12.186;2023-06-26T11:50:51;32.10;35.10
4584;DHT22;2304;47.606;12.186;2023-06-26T11:55:56;31.90;34.70
4584;DHT22;2304;47.606;12.186;2023-06-26T12:00:58;32.00;35.00
4584;DHT22;2304;47.606;12.186;2023-06-26T12:06:01;32.20;33.90
4584;DHT22;2304;47.606;12.186;2023-06-26T12:11:06;32.60;34.70
4584;DHT22;2304;47.606;12.186;2023-06-26T12:16:08;32.60;33.40
4584;DHT22;2304;47.606;12.186;2023-06-26T12:21:28;32.40;33.90
4584;DHT22;2304;47.606;12.186;2023-06-26T12:26:31;31.80;34.40
4584;DHT22;2304;47.606;12.186;2023-06-26T12:31:34;31.30;34.70
4584;DHT22;2304;47.606;12.186;2023-06-26T12:36:41;31.70;35.20
4584;DHT22;2304;47.606;12.186;2023-06-26T12:41:47;32.40;31.80
4584;DHT22;2304;47.606;12.186;2023-06-26T12:46:49;32.80;31.70
4584;DHT22;2304;47.606;12.186;2023-06-26T12:51:53;32.90;31.50
4584;DHT22;2304;47.606;12.186;2023-06-26T12:56:55;33.00;32.60
4584;DHT22;2304;47.606;12.186;2023-06-26T13:01:57;33.30;33.10
4584;DHT22;2304;47.606;12.186;2023-06-26T13:07:00;33.20;31.30
4584;DHT22;2304;47.606;12.186;2023-06-26T13:12:03;33.10;32.50
4584;DHT22;2304;47.606;12.186;2023-06-26T13:17:05;33.10;32.20
4584;DHT22;2304;47.606;12.186;2023-06-26T13:22:08;32.80;30.90
4584;DHT22;2304;47.606;12.186;2023-06-26T13:27:10;32.40;32.30
4584;DHT22;2304;47.606;12.186;2023-06-26T13:32:12;32.10;33.50
4584;DHT22;2304;47.606;12.186;2023-06-26T13:37:15;32.60;33.50
4584;DHT22;2304;47.606;12.186;2023-06-26T13:42:18;32.90;32.40
4584;DHT22;2304;47.606;12.186;2023-06-26T13:47:19;32.40;32.20
4584;DHT22;2304;47.606;12.186;2023-06-26T13:52:23;32.30;34.40
4584;DHT22;2304;47.606;12.186;2023-06-26T13:57:25;31.90;32.50
4584;DHT22;2304;47.606;12.186;2023-06-26T14:02:28;31.70;32.60
4584;DHT22;2304;47.606;12.186;2023-06-26T14:07:31;31.50;33.00
4584;DHT22;2304;47.606;12.186;2023-06-26T14:12:33;31.30;34.00
4584;DHT22;2304;47.606;12.186;2023-06-26T14:17:35;31.40;33.30
4584;DHT22;2304;47.606;12.186;2023-06-26T14:22:42;31.30;32.10
4584;DHT22;2304;47.606;12.186;2023-06-26T14:27:44;31.30;34.30
4584;DHT22;2304;47.606;12.186;2023-06-26T14:32:46;31.50;32.50
4584;DHT22;2304;47.606;12.186;2023-06-26T14:37:49;31.30;31.40
4584;DHT22;2304;47.606;12.186;2023-06-26T14:42:51;31.00;32.70
4584;DHT22;2304;47.606;12.186;2023-06-26T14:47:53;30.80;31.90
4584;DHT22;2304;47.606;12.186;2023-06-26T14:52:56;30.70;32.10
4584;DHT22;2304;47.606;12.186;2023-06-26T14:57:58;31.10;32.40
4584;DHT22;2304;47.606;12.186;2023-06-26T15:03:00;31.10;31.80
4584;DHT22;2304;47.606;12.186;2023-06-26T15:08:03;31.00;32.70
4584;DHT22;2304;47.606;12.186;2023-06-26T15:13:05;31.00;32.80
4584;DHT22;2304;47.606;12.186;2023-06-26T15:18:08;31.50;32.50
4584;DHT22;2304;47.606;12.186;2023-06-26T15:23:11;31.30;32.20
4584;DHT22;2304;47.606;12.186;2023-06-26T15:28:13;31.20;32.00
4584;DHT22;2304;47.606;12.186;2023-06-26T15:33:15;31.20;32.00
4584;DHT22;2304;47.606;12.186;2023-06-26T15:38:18;31.30;32.70
4584;DHT22;2304;47.606;12.186;2023-06-26T15:43:20;31.20;33.90
4584;DHT22;2304;47.606;12.186;2023-06-26T15:48:22;31.10;32.30
4584;DHT22;2304;47.606;12.186;2023-06-26T15:53:35;31.00;32.70
4584;DHT22;2304;47.606;12.186;2023-06-26T15:58:39;30.80;32.40
4584;DHT22;2304;47.606;12.186;2023-06-26T16:03:42;30.80;31.60
4584;DHT22;2304;47.606;12.186;2023-06-26T16:08:46;30.80;31.40
4584;DHT22;2304;47.606;12.186;2023-06-26T16:13:49;30.80;32.60
4584;DHT22;2304;47.606;12.186;2023-06-26T16:18:52;30.70;31.20
4584;DHT22;2304;47.606;12.186;2023-06-26T16:23:55;30.50;31.40
4584;DHT22;2304;47.606;12.186;2023-06-26T16:28:57;30.40;31.20
4584;DHT22;2304;47.606;12.186;2023-06-26T16:34:00;30.30;31.30
4584;DHT22;2304;47.606;12.186;2023-06-26T16:39:03;30.30;31.80
4584;DHT22;2304;47.606;12.186;2023-06-26T16:44:05;30.30;31.40
4584;DHT22;2304;47.606;12.186;2023-06-26T16:49:07;30.30;31.20
4584;DHT22;2304;47.606;12.186;2023-06-26T16:54:10;30.30;32.30
4584;DHT22;2304;47.606;12.186;2023-06-26T16:59:12;30.30;32.00
4584;DHT22;2304;47.606;12.186;2023-06-26T17:04:14;30.30;32.20
4584;DHT22;2304;47.606;12.186;2023-06-26T17:09:17;30.20;32.90
4584;DHT22;2304;47.606;12.186;2023-06-26T17:14:19;30.20;32.50
4584;DHT22;2304;47.606;12.186;2023-06-26T17:19:21;30.00;34.60
4584;DHT22;2304;47.606;12.186;2023-06-26T17:24:24;29.90;34.60
4584;DHT22;2304;47.606;12.186;2023-06-26T17:29:27;29.90;35.10
4584;DHT22;2304;47.606;12.186;2023-06-26T17:34:29;29.80;35.90
4584;DHT22;2304;47.606;12.186;2023-06-26T17:39:32;29.70;35.20
4584;DHT22;2304;47.606;12.186;2023-06-26T17:44:34;29.60;35.10
4584;DHT22;2304;47.606;12.186;2023-06-26T17:49:36;29.40;34.30
4584;DHT22;2304;47.606;12.186;2023-06-26T17:54:39;29.30;34.00
4584;DHT22;2304;47.606;12.186;2023-06-26T17:59:42;29.30;34.40
4584;DHT22;2304;47.606;12.186;2023-06-26T18:04:44;29.20;34.40
4584;DHT22;2304;47.606;12.186;2023-06-26T18:09:47;29.00;35.40
4584;DHT22;2304;47.606;12.186;2023-06-26T18:14:49;28.90;35.80
4584;DHT22;2304;47.606;12.186;2023-06-26T18:19:51;28.80;37.00
4584;DHT22;2304;47.606;12.186;2023-06-26T18:24:54;28.70;37.10
4584;DHT22;2304;47.606;12.186;2023-06-26T18:29:56;28.60;38.20
4584;DHT22;2304;47.606;12.186;2023-06-26T18:34:58;28.50;38.50
4584;DHT22;2304;47.606;12.186;2023-06-26T18:40:01;28.40;38.90
4584;DHT22;2304;47.606;12.186;2023-06-26T18:45:06;28.30;39.90
4584;DHT22;2304;47.606;12.186;2023-06-26T18:50:08;28.30;40.10
4584;DHT22;2304;47.606;12.186;2023-06-26T18:55:11;28.10;40.60
4584;DHT22;2304;47.606;12.186;2023-06-26T19:00:14;28.10;40.90
4584;DHT22;2304;47.606;12.186;2023-06-26T19:05:18;28.00;41.40
4584;DHT22;2304;47.606;12.186;2023-06-26T19:10:22;27.80;42.70
4584;DHT22;2304;47.606;12.186;2023-06-26T19:15:24;27.80;42.90
4584;DHT22;2304;47.606;12.186;2023-06-26T19:20:26;27.60;43.20
4584;DHT22;2304;47.606;12.186;2023-06-26T19:25:29;27.60;43.70
4584;DHT22;2304;47.606;12.186;2023-06-26T19:30:31;27.50;44.30
4584;DHT22;2304;47.606;12.186;2023-06-26T19:35:33;27.40;43.90
4584;DHT22;2304;47.606;12.186;2023-06-26T19:40:36;27.30;44.20
4584;DHT22;2304;47.606;12.186;2023-06-26T19:45:38;27.20;44.70
4584;DHT22;2304;47.606;12.186;2023-06-26T19:50:41;27.10;44.40
4584;DHT22;2304;47.606;12.186;2023-06-26T19:55:44;27.00;44.50
4584;DHT22;2304;47.606;12.186;2023-06-26T20:00:46;26.90;44.50
4584;DHT22;2304;47.606;12.186;2023-06-26T20:05:48;26.80;45.00
4584;DHT22;2304;47.606;12.186;2023-06-26T20:10:52;26.80;44.80
4584;DHT22;2304;47.606;12.186;2023-06-26T20:15:53;26.80;44.90
4584;DHT22;2304;47.606;12.186;2023-06-26T20:20:55;26.80;44.90
4584;DHT22;2304;47.606;12.186;2023-06-26T20:25:58;26.70;45.60
4584;DHT22;2304;47.606;12.186;2023-06-26T20:31:00;26.60;45.70
4584;DHT22;2304;47.606;12.186;2023-06-26T20:36:02;26.50;45.60
4584;DHT22;2304;47.606;12.186;2023-06-26T20:41:06;26.50;46.20
4584;DHT22;2304;47.606;12.186;2023-06-26T20:46:11;26.50;46.60
4584;DHT22;2304;47.606;12.186;2023-06-26T20:51:14;26.40;46.80
4584;DHT22;2304;47.606;12.186;2023-06-26T20:56:21;26.30;47.20
4584;DHT22;2304;47.606;12.186;2023-06-26T21:01:26;26.30;47.80
4584;DHT22;2304;47.606;12.186;2023-06-26T21:06:28;26.20;48.10
4584;DHT22;2304;47.606;12.186;2023-06-26T21:11:31;26.20;48.10
4584;DHT22;2304;47.606;12.186;2023-06-26T21:16:33;26.20;48.30
4584;DHT22;2304;47.606;12.186;2023-06-26T21:21:35;26.10;48.70
4584;DHT22;2304;47.606;12.186;2023-06-26T21:26:39;26.10;48.70
4584;DHT22;2304;47.606;12.186;2023-06-26T21:31:41;26.10;49.40
4584;DHT22;2304;47.606;12.186;2023-06-26T21:36:43;26.00;48.90
4584;DHT22;2304;47.606;12.186;2023-06-26T21:41:46;26.00;49.10
4584;DHT22;2304;47.606;12.186;2023-06-26T21:46:48;26.00;49.00
4584;DHT22;2304;47.606;12.186;2023-06-26T21:51:50;26.00;48.80
4584;DHT22;2304;47.606;12.186;2023-06-26T21:56:53;25.90;48.30
4584;DHT22;2304;47.606;12.186;2023-06-26T22:01:55;25.80;47.70
4584;DHT22;2304;47.606;12.186;2023-06-26T22:06:57;25.70;47.10
4584;DHT22;2304;47.606;12.186;2023-06-26T22:12:00;25.70;47.00
4584;DHT22;2304;47.606;12.186;2023-06-26T22:17:02;25.60;46.80
4584;DHT22;2304;47.606;12.186;2023-06-26T22:22:04;25.60;46.60
4584;DHT22;2304;47.606;12.186;2023-06-26T22:27:07;25.60;46.70
4584;DHT22;2304;47.606;12.186;2023-06-26T22:32:09;25.60;46.70
4584;DHT22;2304;47.606;12.186;2023-06-26T22:37:11;25.60;46.90
4584;DHT22;2304;47.606;12.186;2023-06-26T22:42:14;25.50;46.90
4584;DHT22;2304;47.606;12.186;2023-06-26T22:47:17;25.50;47.80
4584;DHT22;2304;47.606;12.186;2023-06-26T22:52:18;25.50;47.30
4584;DHT22;2304;47.606;12.186;2023-06-26T22:57:22;25.40;47.40
4584;DHT22;2304;47.606;12.186;2023-06-26T23:02:24;25.40;47.30
4584;DHT22;2304;47.606;12.186;2023-06-26T23:07:26;25.40;47.30
4584;DHT22;2304;47.606;12.186;2023-06-26T23:12:30;25.30;46.90
4584;DHT22;2304;47.606;12.186;2023-06-26T23:17:31;25.30;46.10
4584;DHT22;2304;47.606;12.186;2023-06-26T23:22:33;25.20;45.90
4584;DHT22;2304;47.606;12.186;2023-06-26T23:27:38;25.10;45.10
4584;DHT22;2304;47.606;12.186;2023-06-26T23:32:42;25.00;44.50
4584;DHT22;2304;47.606;12.186;2023-06-26T23:37:44;25.00;44.90
4584;DHT22;2304;47.606;12.186;2023-06-26T23:42:55;25.00;44.50
4584;DHT22;2304;47.606;12.186;2023-06-26T23:48:02;25.00;45.10
4584;DHT22;2304;47.606;12.186;2023-06-26T23:53:03;24.90;45.00
4584;DHT22;2304;47.606;12.186;2023-06-26T23:58:07;24.90;44.80
